Terminal Aerodrome Forecast
Issued by NWS Sioux Falls, SD

Home | Current Version | Previous Version | Text Only | Print | Product List | Glossary Off
Versions: 1 2 3 4 5 6 7 8 9 10 11 12 13 14 15 16 17 18

000
FTUS43 KFSD 290520
TAFSUX
TAF
KSUX 290520Z 2906/3006 15005KT P6SM SCT250
     FM290900 14004KT P6SM BKN110
      TEMPO 2911/2914 5SM BR
     FM291600 17008KT P6SM BKN110
     FM300300 VRB03KT P6SM BKN100=

USA.gov is the U.S. government's official web portal to all federal, state and local government web resources and services.